sensor_id;sensor_type;location;lat;lon;timestamp;P1;durP1;ratioP1;P2;durP2;ratioP2
72205;SDS011;60111;48.286;7.812;2023-06-26T00:00:41;6.65;;;5.83;;
72205;SDS011;60111;48.286;7.812;2023-06-26T00:03:13;10.28;;;5.92;;
72205;SDS011;60111;48.286;7.812;2023-06-26T00:05:46;7.90;;;6.00;;
72205;SDS011;60111;48.286;7.812;2023-06-26T00:08:18;6.33;;;5.72;;
72205;SDS011;60111;48.286;7.812;2023-06-26T00:10:51;6.95;;;5.87;;
72205;SDS011;60111;48.286;7.812;2023-06-26T00:13:24;6.25;;;5.65;;
72205;SDS011;60111;48.286;7.812;2023-06-26T00:15:57;7.72;;;5.95;;
72205;SDS011;60111;48.286;7.812;2023-06-26T00:18:31;11.55;;;6.15;;
72205;SDS011;60111;48.286;7.812;2023-06-26T00:21:03;8.03;;;6.65;;
72205;SDS011;60111;48.286;7.812;2023-06-26T00:23:36;6.78;;;5.95;;
72205;SDS011;60111;48.286;7.812;2023-06-26T00:26:09;6.60;;;5.92;;
72205;SDS011;60111;48.286;7.812;2023-06-26T00:28:41;8.18;;;6.03;;
72205;SDS011;60111;48.286;7.812;2023-06-26T00:31:14;8.83;;;6.03;;
72205;SDS011;60111;48.286;7.812;2023-06-26T00:33:46;7.15;;;6.35;;
72205;SDS011;60111;48.286;7.812;2023-06-26T00:36:19;7.30;;;6.33;;
72205;SDS011;60111;48.286;7.812;2023-06-26T00:38:53;7.10;;;5.93;;
72205;SDS011;60111;48.286;7.812;2023-06-26T00:41:25;7.25;;;6.35;;
72205;SDS011;60111;48.286;7.812;2023-06-26T00:43:58;6.60;;;5.90;;
72205;SDS011;60111;48.286;7.812;2023-06-26T00:46:31;6.83;;;5.90;;
72205;SDS011;60111;48.286;7.812;2023-06-26T00:49:04;7.15;;;5.60;;
72205;SDS011;60111;48.286;7.812;2023-06-26T00:51:36;6.58;;;5.67;;
72205;SDS011;60111;48.286;7.812;2023-06-26T00:54:09;6.22;;;5.50;;
72205;SDS011;60111;48.286;7.812;2023-06-26T00:56:42;7.28;;;5.75;;
72205;SDS011;60111;48.286;7.812;2023-06-26T01:01:48;7.78;;;5.17;;
72205;SDS011;60111;48.286;7.812;2023-06-26T01:04:21;7.72;;;5.95;;
72205;SDS011;60111;48.286;7.812;2023-06-26T01:06:55;8.37;;;5.60;;
72205;SDS011;60111;48.286;7.812;2023-06-26T01:09:28;7.87;;;5.30;;
72205;SDS011;60111;48.286;7.812;2023-06-26T01:12:02;7.05;;;5.72;;
72205;SDS011;60111;48.286;7.812;2023-06-26T01:14:35;6.20;;;5.60;;
72205;SDS011;60111;48.286;7.812;2023-06-26T01:17:08;6.28;;;5.65;;
72205;SDS011;60111;48.286;7.812;2023-06-26T01:19:46;7.42;;;5.70;;
72205;SDS011;60111;48.286;7.812;2023-06-26T01:22:27;6.70;;;5.87;;
72205;SDS011;60111;48.286;7.812;2023-06-26T01:27:38;8.57;;;5.80;;
72205;SDS011;60111;48.286;7.812;2023-06-26T01:30:13;8.43;;;5.85;;
72205;SDS011;60111;48.286;7.812;2023-06-26T01:32:48;8.50;;;5.58;;
72205;SDS011;60111;48.286;7.812;2023-06-26T01:35:21;6.93;;;5.70;;
72205;SDS011;60111;48.286;7.812;2023-06-26T01:38:10;9.03;;;5.80;;
72205;SDS011;60111;48.286;7.812;2023-06-26T01:40:47;7.13;;;5.93;;
72205;SDS011;60111;48.286;7.812;2023-06-26T01:43:31;7.45;;;6.50;;
72205;SDS011;60111;48.286;7.812;2023-06-26T01:46:18;8.83;;;5.70;;
72205;SDS011;60111;48.286;7.812;2023-06-26T01:49:06;10.35;;;5.95;;
72205;SDS011;60111;48.286;7.812;2023-06-26T01:51:51;8.17;;;6.00;;
72205;SDS011;60111;48.286;7.812;2023-06-26T01:54:21;6.42;;;5.72;;
72205;SDS011;60111;48.286;7.812;2023-06-26T01:56:55;6.97;;;5.80;;
72205;SDS011;60111;48.286;7.812;2023-06-26T01:59:30;6.20;;;5.60;;
72205;SDS011;60111;48.286;7.812;2023-06-26T02:02:07;6.28;;;5.47;;
72205;SDS011;60111;48.286;7.812;2023-06-26T02:04:39;8.13;;;5.80;;
72205;SDS011;60111;48.286;7.812;2023-06-26T02:07:12;9.83;;;6.23;;
72205;SDS011;60111;48.286;7.812;2023-06-26T02:09:45;8.13;;;5.85;;
72205;SDS011;60111;48.286;7.812;2023-06-26T02:12:17;6.30;;;5.67;;
72205;SDS011;60111;48.286;7.812;2023-06-26T02:14:50;7.55;;;6.28;;
72205;SDS011;60111;48.286;7.812;2023-06-26T02:17:22;7.33;;;5.85;;
72205;SDS011;60111;48.286;7.812;2023-06-26T02:19:55;8.20;;;6.07;;
72205;SDS011;60111;48.286;7.812;2023-06-26T02:22:27;6.95;;;6.08;;
72205;SDS011;60111;48.286;7.812;2023-06-26T02:25:00;6.80;;;5.97;;
72205;SDS011;60111;48.286;7.812;2023-06-26T02:27:33;7.50;;;6.37;;
72205;SDS011;60111;48.286;7.812;2023-06-26T02:30:06;11.68;;;6.25;;
72205;SDS011;60111;48.286;7.812;2023-06-26T02:35:11;6.95;;;5.85;;
72205;SDS011;60111;48.286;7.812;2023-06-26T02:37:44;6.85;;;6.12;;
72205;SDS011;60111;48.286;7.812;2023-06-26T02:40:16;8.83;;;6.00;;
72205;SDS011;60111;48.286;7.812;2023-06-26T02:42:49;7.25;;;5.78;;
72205;SDS011;60111;48.286;7.812;2023-06-26T02:45:21;6.40;;;5.37;;
72205;SDS011;60111;48.286;7.812;2023-06-26T02:47:54;8.78;;;6.67;;
72205;SDS011;60111;48.286;7.812;2023-06-26T02:50:26;7.00;;;5.60;;
72205;SDS011;60111;48.286;7.812;2023-06-26T02:52:59;8.08;;;6.47;;
72205;SDS011;60111;48.286;7.812;2023-06-26T02:55:33;7.22;;;6.35;;
72205;SDS011;60111;48.286;7.812;2023-06-26T02:58:06;8.25;;;6.28;;
72205;SDS011;60111;48.286;7.812;2023-06-26T03:00:38;10.00;;;6.28;;
72205;SDS011;60111;48.286;7.812;2023-06-26T03:03:12;7.47;;;6.65;;
72205;SDS011;60111;48.286;7.812;2023-06-26T03:05:44;7.00;;;6.10;;
72205;SDS011;60111;48.286;7.812;2023-06-26T03:08:17;8.88;;;6.28;;
72205;SDS011;60111;48.286;7.812;2023-06-26T03:10:50;9.50;;;6.42;;
72205;SDS011;60111;48.286;7.812;2023-06-26T03:13:22;6.45;;;5.85;;
72205;SDS011;60111;48.286;7.812;2023-06-26T03:15:55;8.75;;;6.25;;
72205;SDS011;60111;48.286;7.812;2023-06-26T03:18:27;7.30;;;6.58;;
72205;SDS011;60111;48.286;7.812;2023-06-26T03:21:00;13.48;;;7.00;;
72205;SDS011;60111;48.286;7.812;2023-06-26T03:23:33;7.90;;;6.50;;
72205;SDS011;60111;48.286;7.812;2023-06-26T03:26:05;8.45;;;6.87;;
72205;SDS011;60111;48.286;7.812;2023-06-26T03:28:38;12.98;;;7.05;;
72205;SDS011;60111;48.286;7.812;2023-06-26T03:31:11;8.90;;;7.10;;
72205;SDS011;60111;48.286;7.812;2023-06-26T03:33:44;9.37;;;6.93;;
72205;SDS011;60111;48.286;7.812;2023-06-26T03:36:17;8.48;;;6.78;;
72205;SDS011;60111;48.286;7.812;2023-06-26T03:38:49;7.40;;;6.60;;
72205;SDS011;60111;48.286;7.812;2023-06-26T03:41:23;7.87;;;6.65;;
72205;SDS011;60111;48.286;7.812;2023-06-26T03:43:56;8.73;;;7.22;;
72205;SDS011;60111;48.286;7.812;2023-06-26T03:46:30;7.77;;;6.90;;
72205;SDS011;60111;48.286;7.812;2023-06-26T03:49:03;7.10;;;6.40;;
72205;SDS011;60111;48.286;7.812;2023-06-26T03:51:35;11.18;;;6.95;;
72205;SDS011;60111;48.286;7.812;2023-06-26T03:54:08;8.70;;;7.10;;
72205;SDS011;60111;48.286;7.812;2023-06-26T03:56:41;10.85;;;6.85;;
72205;SDS011;60111;48.286;7.812;2023-06-26T03:59:14;7.27;;;6.50;;
72205;SDS011;60111;48.286;7.812;2023-06-26T04:01:47;9.77;;;6.30;;
72205;SDS011;60111;48.286;7.812;2023-06-26T04:04:19;7.75;;;6.85;;
72205;SDS011;60111;48.286;7.812;2023-06-26T04:06:52;8.85;;;6.53;;
72205;SDS011;60111;48.286;7.812;2023-06-26T04:09:25;8.27;;;6.43;;
72205;SDS011;60111;48.286;7.812;2023-06-26T04:11:58;8.73;;;7.47;;
72205;SDS011;60111;48.286;7.812;2023-06-26T04:14:30;8.07;;;6.97;;
72205;SDS011;60111;48.286;7.812;2023-06-26T04:17:03;9.33;;;6.65;;
72205;SDS011;60111;48.286;7.812;2023-06-26T04:19:35;10.63;;;6.90;;
72205;SDS011;60111;48.286;7.812;2023-06-26T04:22:08;10.15;;;6.90;;
72205;SDS011;60111;48.286;7.812;2023-06-26T04:24:41;8.55;;;6.60;;
72205;SDS011;60111;48.286;7.812;2023-06-26T04:27:15;8.50;;;6.40;;
72205;SDS011;60111;48.286;7.812;2023-06-26T04:29:48;8.68;;;7.12;;
72205;SDS011;60111;48.286;7.812;2023-06-26T04:32:21;7.15;;;6.20;;
72205;SDS011;60111;48.286;7.812;2023-06-26T04:34:54;9.50;;;6.50;;
72205;SDS011;60111;48.286;7.812;2023-06-26T04:37:26;8.23;;;6.90;;
72205;SDS011;60111;48.286;7.812;2023-06-26T04:39:59;9.50;;;6.75;;
72205;SDS011;60111;48.286;7.812;2023-06-26T04:42:32;8.65;;;6.47;;
72205;SDS011;60111;48.286;7.812;2023-06-26T04:45:05;9.90;;;7.20;;
72205;SDS011;60111;48.286;7.812;2023-06-26T04:47:38;7.83;;;6.42;;
72205;SDS011;60111;48.286;7.812;2023-06-26T04:50:11;13.00;;;6.97;;
72205;SDS011;60111;48.286;7.812;2023-06-26T04:52:44;8.98;;;6.80;;
72205;SDS011;60111;48.286;7.812;2023-06-26T04:55:17;8.77;;;6.27;;
72205;SDS011;60111;48.286;7.812;2023-06-26T04:57:49;7.80;;;6.20;;
72205;SDS011;60111;48.286;7.812;2023-06-26T05:00:22;8.13;;;6.75;;
72205;SDS011;60111;48.286;7.812;2023-06-26T05:03:00;10.82;;;6.78;;
72205;SDS011;60111;48.286;7.812;2023-06-26T05:05:33;11.78;;;6.65;;
72205;SDS011;60111;48.286;7.812;2023-06-26T05:08:17;6.50;;;5.83;;
72205;SDS011;60111;48.286;7.812;2023-06-26T05:10:50;8.87;;;6.37;;
72205;SDS011;60111;48.286;7.812;2023-06-26T05:13:24;7.30;;;6.15;;
72205;SDS011;60111;48.286;7.812;2023-06-26T05:15:57;9.58;;;6.75;;
72205;SDS011;60111;48.286;7.812;2023-06-26T05:18:30;12.15;;;6.95;;
72205;SDS011;60111;48.286;7.812;2023-06-26T05:21:03;13.50;;;6.90;;
72205;SDS011;60111;48.286;7.812;2023-06-26T05:23:36;12.00;;;6.57;;
72205;SDS011;60111;48.286;7.812;2023-06-26T05:26:09;7.72;;;6.50;;
72205;SDS011;60111;48.286;7.812;2023-06-26T05:28:42;7.58;;;6.12;;
72205;SDS011;60111;48.286;7.812;2023-06-26T05:31:16;10.15;;;6.53;;
72205;SDS011;60111;48.286;7.812;2023-06-26T05:33:49;7.53;;;6.05;;
72205;SDS011;60111;48.286;7.812;2023-06-26T05:36:23;7.03;;;6.03;;
72205;SDS011;60111;48.286;7.812;2023-06-26T05:38:56;7.80;;;6.50;;
72205;SDS011;60111;48.286;7.812;2023-06-26T05:41:30;9.23;;;6.12;;
72205;SDS011;60111;48.286;7.812;2023-06-26T05:44:02;7.17;;;5.70;;
72205;SDS011;60111;48.286;7.812;2023-06-26T05:46:35;6.47;;;5.80;;
72205;SDS011;60111;48.286;7.812;2023-06-26T05:49:09;9.60;;;5.78;;
72205;SDS011;60111;48.286;7.812;2023-06-26T05:51:42;6.80;;;5.70;;
72205;SDS011;60111;48.286;7.812;2023-06-26T05:54:15;6.58;;;5.55;;
72205;SDS011;60111;48.286;7.812;2023-06-26T05:56:48;6.20;;;5.60;;
72205;SDS011;60111;48.286;7.812;2023-06-26T05:59:22;7.53;;;6.17;;
72205;SDS011;60111;48.286;7.812;2023-06-26T06:01:55;8.40;;;5.40;;
72205;SDS011;60111;48.286;7.812;2023-06-26T06:04:28;14.47;;;5.30;;
72205;SDS011;60111;48.286;7.812;2023-06-26T06:07:00;8.80;;;5.83;;
72205;SDS011;60111;48.286;7.812;2023-06-26T06:09:33;8.73;;;5.55;;
72205;SDS011;60111;48.286;7.812;2023-06-26T06:12:06;9.25;;;5.60;;
72205;SDS011;60111;48.286;7.812;2023-06-26T06:14:39;8.13;;;5.73;;
72205;SDS011;60111;48.286;7.812;2023-06-26T06:17:12;9.53;;;5.60;;
72205;SDS011;60111;48.286;7.812;2023-06-26T06:19:45;6.53;;;5.30;;
72205;SDS011;60111;48.286;7.812;2023-06-26T06:22:17;10.23;;;5.20;;
72205;SDS011;60111;48.286;7.812;2023-06-26T06:24:50;6.80;;;5.47;;
72205;SDS011;60111;48.286;7.812;2023-06-26T06:27:23;9.78;;;5.50;;
72205;SDS011;60111;48.286;7.812;2023-06-26T06:29:55;7.10;;;5.23;;
72205;SDS011;60111;48.286;7.812;2023-06-26T06:32:28;7.12;;;5.42;;
72205;SDS011;60111;48.286;7.812;2023-06-26T06:35:00;7.30;;;5.72;;
72205;SDS011;60111;48.286;7.812;2023-06-26T06:37:35;6.35;;;5.75;;
72205;SDS011;60111;48.286;7.812;2023-06-26T06:40:11;8.13;;;6.00;;
72205;SDS011;60111;48.286;7.812;2023-06-26T06:42:44;7.45;;;5.60;;
72205;SDS011;60111;48.286;7.812;2023-06-26T06:45:17;7.25;;;5.60;;
72205;SDS011;60111;48.286;7.812;2023-06-26T06:47:49;6.70;;;5.63;;
72205;SDS011;60111;48.286;7.812;2023-06-26T06:50:22;7.17;;;5.83;;
72205;SDS011;60111;48.286;7.812;2023-06-26T06:52:54;8.00;;;5.80;;
72205;SDS011;60111;48.286;7.812;2023-06-26T06:55:28;6.87;;;5.20;;
72205;SDS011;60111;48.286;7.812;2023-06-26T06:58:00;8.13;;;5.70;;
72205;SDS011;60111;48.286;7.812;2023-06-26T07:00:33;11.43;;;5.83;;
72205;SDS011;60111;48.286;7.812;2023-06-26T07:03:06;7.25;;;5.67;;
72205;SDS011;60111;48.286;7.812;2023-06-26T07:05:41;8.40;;;5.65;;
72205;SDS011;60111;48.286;7.812;2023-06-26T07:08:14;11.18;;;5.83;;
72205;SDS011;60111;48.286;7.812;2023-06-26T07:10:46;10.90;;;5.63;;
72205;SDS011;60111;48.286;7.812;2023-06-26T07:13:19;11.70;;;5.92;;
72205;SDS011;60111;48.286;7.812;2023-06-26T07:15:51;8.85;;;6.05;;
72205;SDS011;60111;48.286;7.812;2023-06-26T07:18:24;8.05;;;5.92;;
72205;SDS011;60111;48.286;7.812;2023-06-26T07:20:56;7.70;;;5.70;;
72205;SDS011;60111;48.286;7.812;2023-06-26T07:23:29;8.35;;;5.72;;
72205;SDS011;60111;48.286;7.812;2023-06-26T07:26:02;8.00;;;6.30;;
72205;SDS011;60111;48.286;7.812;2023-06-26T07:28:34;8.40;;;5.73;;
72205;SDS011;60111;48.286;7.812;2023-06-26T07:31:07;8.28;;;5.55;;
72205;SDS011;60111;48.286;7.812;2023-06-26T07:33:40;7.33;;;5.95;;
72205;SDS011;60111;48.286;7.812;2023-06-26T07:36:12;8.05;;;5.42;;
72205;SDS011;60111;48.286;7.812;2023-06-26T07:38:45;8.20;;;6.03;;
72205;SDS011;60111;48.286;7.812;2023-06-26T07:41:18;6.58;;;5.47;;
72205;SDS011;60111;48.286;7.812;2023-06-26T07:43:50;9.08;;;5.67;;
72205;SDS011;60111;48.286;7.812;2023-06-26T07:46:23;9.65;;;5.97;;
72205;SDS011;60111;48.286;7.812;2023-06-26T07:48:55;9.57;;;5.60;;
72205;SDS011;60111;48.286;7.812;2023-06-26T07:51:28;12.82;;;5.62;;
72205;SDS011;60111;48.286;7.812;2023-06-26T07:54:00;6.33;;;5.35;;
72205;SDS011;60111;48.286;7.812;2023-06-26T07:56:52;7.87;;;6.00;;
72205;SDS011;60111;48.286;7.812;2023-06-26T07:59:27;6.30;;;5.67;;
72205;SDS011;60111;48.286;7.812;2023-06-26T08:02:01;6.85;;;5.65;;
72205;SDS011;60111;48.286;7.812;2023-06-26T08:04:33;10.93;;;5.33;;
72205;SDS011;60111;48.286;7.812;2023-06-26T08:07:06;6.87;;;5.70;;
72205;SDS011;60111;48.286;7.812;2023-06-26T08:09:39;11.08;;;6.08;;
72205;SDS011;60111;48.286;7.812;2023-06-26T08:12:12;10.13;;;5.50;;
72205;SDS011;60111;48.286;7.812;2023-06-26T08:14:45;5.87;;;5.28;;
72205;SDS011;60111;48.286;7.812;2023-06-26T08:17:17;5.97;;;5.25;;
72205;SDS011;60111;48.286;7.812;2023-06-26T08:19:50;9.48;;;5.83;;
72205;SDS011;60111;48.286;7.812;2023-06-26T08:22:23;6.85;;;5.60;;
72205;SDS011;60111;48.286;7.812;2023-06-26T08:24:56;8.00;;;5.70;;
72205;SDS011;60111;48.286;7.812;2023-06-26T08:27:28;7.13;;;5.33;;
72205;SDS011;60111;48.286;7.812;2023-06-26T08:30:01;6.17;;;5.58;;
72205;SDS011;60111;48.286;7.812;2023-06-26T08:32:35;7.53;;;5.60;;
72205;SDS011;60111;48.286;7.812;2023-06-26T08:35:08;8.43;;;5.90;;
72205;SDS011;60111;48.286;7.812;2023-06-26T08:37:41;8.58;;;5.22;;
72205;SDS011;60111;48.286;7.812;2023-06-26T08:40:14;8.35;;;5.62;;
72205;SDS011;60111;48.286;7.812;2023-06-26T08:42:49;6.13;;;5.53;;
72205;SDS011;60111;48.286;7.812;2023-06-26T08:45:24;8.45;;;5.87;;
72205;SDS011;60111;48.286;7.812;2023-06-26T08:47:59;11.57;;;6.67;;
72205;SDS011;60111;48.286;7.812;2023-06-26T08:50:34;6.60;;;5.92;;
72205;SDS011;60111;48.286;7.812;2023-06-26T08:53:14;11.35;;;6.30;;
72205;SDS011;60111;48.286;7.812;2023-06-26T08:55:52;13.65;;;6.08;;
72205;SDS011;60111;48.286;7.812;2023-06-26T08:58:25;7.62;;;5.90;;
72205;SDS011;60111;48.286;7.812;2023-06-26T09:00:58;8.33;;;6.22;;
72205;SDS011;60111;48.286;7.812;2023-06-26T09:03:31;10.78;;;5.58;;
72205;SDS011;60111;48.286;7.812;2023-06-26T09:06:04;9.08;;;6.25;;
72205;SDS011;60111;48.286;7.812;2023-06-26T09:08:37;9.10;;;6.00;;
72205;SDS011;60111;48.286;7.812;2023-06-26T09:11:10;6.62;;;5.58;;
72205;SDS011;60111;48.286;7.812;2023-06-26T09:13:42;8.30;;;5.47;;
72205;SDS011;60111;48.286;7.812;2023-06-26T09:16:15;7.72;;;5.78;;
72205;SDS011;60111;48.286;7.812;2023-06-26T09:18:48;11.20;;;5.58;;
72205;SDS011;60111;48.286;7.812;2023-06-26T09:21:22;7.90;;;5.03;;
72205;SDS011;60111;48.286;7.812;2023-06-26T09:23:55;9.30;;;5.40;;
72205;SDS011;60111;48.286;7.812;2023-06-26T09:26:28;6.70;;;5.23;;
72205;SDS011;60111;48.286;7.812;2023-06-26T09:29:02;6.42;;;5.22;;
72205;SDS011;60111;48.286;7.812;2023-06-26T09:31:38;9.73;;;5.77;;
72205;SDS011;60111;48.286;7.812;2023-06-26T09:34:12;14.70;;;5.40;;
72205;SDS011;60111;48.286;7.812;2023-06-26T09:36:44;7.42;;;5.03;;
72205;SDS011;60111;48.286;7.812;2023-06-26T09:39:18;8.13;;;5.20;;
72205;SDS011;60111;48.286;7.812;2023-06-26T09:44:26;10.20;;;5.37;;
72205;SDS011;60111;48.286;7.812;2023-06-26T09:47:00;8.27;;;5.47;;
72205;SDS011;60111;48.286;7.812;2023-06-26T09:49:34;7.22;;;5.62;;
72205;SDS011;60111;48.286;7.812;2023-06-26T09:52:07;6.13;;;5.53;;
72205;SDS011;60111;48.286;7.812;2023-06-26T09:54:40;11.70;;;5.60;;
72205;SDS011;60111;48.286;7.812;2023-06-26T09:57:17;6.37;;;5.35;;
72205;SDS011;60111;48.286;7.812;2023-06-26T09:59:50;6.55;;;5.58;;
72205;SDS011;60111;48.286;7.812;2023-06-26T10:02:23;8.47;;;5.70;;
72205;SDS011;60111;48.286;7.812;2023-06-26T10:04:55;12.00;;;5.40;;
72205;SDS011;60111;48.286;7.812;2023-06-26T10:07:28;7.12;;;6.00;;
72205;SDS011;60111;48.286;7.812;2023-06-26T10:12:35;7.95;;;5.62;;
72205;SDS011;60111;48.286;7.812;2023-06-26T10:15:07;5.50;;;4.75;;
72205;SDS011;60111;48.286;7.812;2023-06-26T10:17:43;9.60;;;4.87;;
72205;SDS011;60111;48.286;7.812;2023-06-26T10:20:18;13.25;;;5.33;;
72205;SDS011;60111;48.286;7.812;2023-06-26T10:22:51;8.63;;;6.00;;
72205;SDS011;60111;48.286;7.812;2023-06-26T10:25:25;11.40;;;4.87;;
72205;SDS011;60111;48.286;7.812;2023-06-26T10:28:00;6.50;;;4.90;;
72205;SDS011;60111;48.286;7.812;2023-06-26T10:30:35;5.92;;;4.92;;
72205;SDS011;60111;48.286;7.812;2023-06-26T10:33:09;10.32;;;5.12;;
72205;SDS011;60111;48.286;7.812;2023-06-26T10:35:43;8.83;;;4.87;;
72205;SDS011;60111;48.286;7.812;2023-06-26T10:38:18;8.68;;;4.87;;
72205;SDS011;60111;48.286;7.812;2023-06-26T10:40:51;5.05;;;4.50;;
72205;SDS011;60111;48.286;7.812;2023-06-26T10:43:29;4.87;;;4.37;;
72205;SDS011;60111;48.286;7.812;2023-06-26T10:45:59;5.25;;;4.30;;
72205;SDS011;60111;48.286;7.812;2023-06-26T10:48:32;6.80;;;4.25;;
72205;SDS011;60111;48.286;7.812;2023-06-26T10:53:50;6.85;;;4.62;;
72205;SDS011;60111;48.286;7.812;2023-06-26T10:56:47;11.33;;;5.03;;
72205;SDS011;60111;48.286;7.812;2023-06-26T11:01:59;6.53;;;4.78;;
72205;SDS011;60111;48.286;7.812;2023-06-26T11:07:17;10.30;;;5.28;;
72205;SDS011;60111;48.286;7.812;2023-06-26T11:09:54;8.13;;;4.90;;
72205;SDS011;60111;48.286;7.812;2023-06-26T11:12:43;10.67;;;4.73;;
72205;SDS011;60111;48.286;7.812;2023-06-26T11:15:18;9.43;;;5.10;;
72205;SDS011;60111;48.286;7.812;2023-06-26T11:17:51;5.30;;;4.70;;
72205;SDS011;60111;48.286;7.812;2023-06-26T11:20:25;5.45;;;4.95;;
72205;SDS011;60111;48.286;7.812;2023-06-26T11:25:30;7.30;;;4.83;;
72205;SDS011;60111;48.286;7.812;2023-06-26T11:28:09;10.30;;;5.08;;
72205;SDS011;60111;48.286;7.812;2023-06-26T11:33:13;9.40;;;5.17;;
72205;SDS011;60111;48.286;7.812;2023-06-26T11:35:46;5.47;;;4.90;;
72205;SDS011;60111;48.286;7.812;2023-06-26T11:38:18;10.38;;;5.00;;
72205;SDS011;60111;48.286;7.812;2023-06-26T11:40:51;8.67;;;4.50;;
72205;SDS011;60111;48.286;7.812;2023-06-26T11:43:24;7.45;;;4.92;;
72205;SDS011;60111;48.286;7.812;2023-06-26T11:45:56;9.55;;;4.70;;
72205;SDS011;60111;48.286;7.812;2023-06-26T11:48:29;8.58;;;4.37;;
72205;SDS011;60111;48.286;7.812;2023-06-26T11:51:04;9.48;;;4.85;;
72205;SDS011;60111;48.286;7.812;2023-06-26T11:53:40;5.47;;;4.60;;
72205;SDS011;60111;48.286;7.812;2023-06-26T11:56:14;6.20;;;4.95;;
72205;SDS011;60111;48.286;7.812;2023-06-26T12:01:44;6.17;;;3.97;;
72205;SDS011;60111;48.286;7.812;2023-06-26T12:04:17;7.00;;;4.33;;
72205;SDS011;60111;48.286;7.812;2023-06-26T12:06:52;8.17;;;4.40;;
72205;SDS011;60111;48.286;7.812;2023-06-26T12:09:28;6.35;;;4.20;;
72205;SDS011;60111;48.286;7.812;2023-06-26T12:12:01;7.12;;;3.90;;
72205;SDS011;60111;48.286;7.812;2023-06-26T12:14:34;7.28;;;3.72;;
72205;SDS011;60111;48.286;7.812;2023-06-26T12:17:11;7.97;;;3.58;;
72205;SDS011;60111;48.286;7.812;2023-06-26T12:19:45;5.05;;;3.35;;
72205;SDS011;60111;48.286;7.812;2023-06-26T12:22:20;6.90;;;3.30;;
72205;SDS011;60111;48.286;7.812;2023-06-26T12:24:52;5.30;;;3.63;;
72205;SDS011;60111;48.286;7.812;2023-06-26T12:27:28;6.22;;;3.70;;
72205;SDS011;60111;48.286;7.812;2023-06-26T12:30:03;6.10;;;3.37;;
72205;SDS011;60111;48.286;7.812;2023-06-26T12:32:36;5.33;;;3.83;;
72205;SDS011;60111;48.286;7.812;2023-06-26T12:35:10;6.90;;;3.40;;
72205;SDS011;60111;48.286;7.812;2023-06-26T12:37:43;6.25;;;3.20;;
72205;SDS011;60111;48.286;7.812;2023-06-26T12:40:17;5.83;;;3.67;;
72205;SDS011;60111;48.286;7.812;2023-06-26T12:42:52;7.33;;;3.67;;
72205;SDS011;60111;48.286;7.812;2023-06-26T12:45:27;11.60;;;3.83;;
72205;SDS011;60111;48.286;7.812;2023-06-26T12:48:10;6.83;;;3.20;;
72205;SDS011;60111;48.286;7.812;2023-06-26T12:50:44;4.28;;;3.10;;
72205;SDS011;60111;48.286;7.812;2023-06-26T12:53:17;4.78;;;3.20;;
72205;SDS011;60111;48.286;7.812;2023-06-26T12:55:49;4.70;;;2.97;;
72205;SDS011;60111;48.286;7.812;2023-06-26T12:58:22;4.65;;;3.22;;
72205;SDS011;60111;48.286;7.812;2023-06-26T13:00:54;4.90;;;3.13;;
72205;SDS011;60111;48.286;7.812;2023-06-26T13:03:28;11.12;;;3.30;;
72205;SDS011;60111;48.286;7.812;2023-06-26T13:06:01;5.45;;;3.35;;
72205;SDS011;60111;48.286;7.812;2023-06-26T13:08:39;6.50;;;3.10;;
72205;SDS011;60111;48.286;7.812;2023-06-26T13:11:36;5.95;;;2.80;;
72205;SDS011;60111;48.286;7.812;2023-06-26T13:14:09;5.10;;;3.10;;
72205;SDS011;60111;48.286;7.812;2023-06-26T13:16:41;3.80;;;2.70;;
72205;SDS011;60111;48.286;7.812;2023-06-26T13:19:14;6.92;;;2.87;;
72205;SDS011;60111;48.286;7.812;2023-06-26T13:21:47;7.30;;;2.47;;
72205;SDS011;60111;48.286;7.812;2023-06-26T13:24:19;3.53;;;2.33;;
72205;SDS011;60111;48.286;7.812;2023-06-26T13:26:52;4.37;;;2.60;;
72205;SDS011;60111;48.286;7.812;2023-06-26T13:29:24;3.40;;;2.37;;
72205;SDS011;60111;48.286;7.812;2023-06-26T13:31:57;3.60;;;2.40;;
72205;SDS011;60111;48.286;7.812;2023-06-26T13:34:30;3.40;;;2.77;;
72205;SDS011;60111;48.286;7.812;2023-06-26T13:37:02;5.70;;;3.50;;
72205;SDS011;60111;48.286;7.812;2023-06-26T13:39:37;4.62;;;2.87;;
72205;SDS011;60111;48.286;7.812;2023-06-26T13:42:10;4.47;;;3.77;;
72205;SDS011;60111;48.286;7.812;2023-06-26T13:44:43;5.67;;;3.30;;
72205;SDS011;60111;48.286;7.812;2023-06-26T13:47:16;5.10;;;3.27;;
72205;SDS011;60111;48.286;7.812;2023-06-26T13:49:48;4.78;;;3.27;;
72205;SDS011;60111;48.286;7.812;2023-06-26T13:52:21;5.00;;;3.42;;
72205;SDS011;60111;48.286;7.812;2023-06-26T13:54:53;6.65;;;3.42;;
72205;SDS011;60111;48.286;7.812;2023-06-26T13:57:26;3.90;;;3.40;;
72205;SDS011;60111;48.286;7.812;2023-06-26T13:59:59;3.97;;;3.13;;
72205;SDS011;60111;48.286;7.812;2023-06-26T14:02:33;5.17;;;3.20;;
72205;SDS011;60111;48.286;7.812;2023-06-26T14:05:06;5.47;;;3.27;;
72205;SDS011;60111;48.286;7.812;2023-06-26T14:07:39;6.42;;;3.35;;
72205;SDS011;60111;48.286;7.812;2023-06-26T14:10:13;5.77;;;3.50;;
72205;SDS011;60111;48.286;7.812;2023-06-26T14:12:46;5.17;;;3.27;;
72205;SDS011;60111;48.286;7.812;2023-06-26T14:15:19;7.17;;;3.62;;
72205;SDS011;60111;48.286;7.812;2023-06-26T14:17:51;6.83;;;3.60;;
72205;SDS011;60111;48.286;7.812;2023-06-26T14:20:26;4.50;;;3.87;;
72205;SDS011;60111;48.286;7.812;2023-06-26T14:22:59;4.37;;;3.83;;
72205;SDS011;60111;48.286;7.812;2023-06-26T14:28:04;5.92;;;4.20;;
72205;SDS011;60111;48.286;7.812;2023-06-26T14:30:37;8.28;;;4.33;;
72205;SDS011;60111;48.286;7.812;2023-06-26T14:33:10;5.58;;;4.50;;
72205;SDS011;60111;48.286;7.812;2023-06-26T14:35:43;5.90;;;4.20;;
72205;SDS011;60111;48.286;7.812;2023-06-26T14:38:15;7.35;;;5.28;;
72205;SDS011;60111;48.286;7.812;2023-06-26T14:40:48;5.78;;;4.90;;
72205;SDS011;60111;48.286;7.812;2023-06-26T14:43:21;7.03;;;4.50;;
72205;SDS011;60111;48.286;7.812;2023-06-26T14:45:53;7.20;;;5.47;;
72205;SDS011;60111;48.286;7.812;2023-06-26T14:48:26;7.58;;;5.30;;
72205;SDS011;60111;48.286;7.812;2023-06-26T14:50:58;8.68;;;5.33;;
72205;SDS011;60111;48.286;7.812;2023-06-26T14:53:31;8.33;;;5.60;;
72205;SDS011;60111;48.286;7.812;2023-06-26T14:56:04;6.35;;;4.92;;
72205;SDS011;60111;48.286;7.812;2023-06-26T14:58:38;7.10;;;5.10;;
72205;SDS011;60111;48.286;7.812;2023-06-26T15:01:11;7.40;;;5.40;;
72205;SDS011;60111;48.286;7.812;2023-06-26T15:03:46;8.35;;;5.58;;
72205;SDS011;60111;48.286;7.812;2023-06-26T15:06:18;7.75;;;5.97;;
72205;SDS011;60111;48.286;7.812;2023-06-26T15:08:51;11.88;;;6.20;;
72205;SDS011;60111;48.286;7.812;2023-06-26T15:11:23;7.05;;;6.05;;
72205;SDS011;60111;48.286;7.812;2023-06-26T15:13:57;8.10;;;5.70;;
72205;SDS011;60111;48.286;7.812;2023-06-26T15:16:29;7.33;;;6.30;;
72205;SDS011;60111;48.286;7.812;2023-06-26T15:19:02;7.50;;;6.00;;
72205;SDS011;60111;48.286;7.812;2023-06-26T15:21:35;10.65;;;6.22;;
72205;SDS011;60111;48.286;7.812;2023-06-26T15:24:07;9.85;;;6.25;;
72205;SDS011;60111;48.286;7.812;2023-06-26T15:26:41;11.25;;;6.12;;
72205;SDS011;60111;48.286;7.812;2023-06-26T15:29:13;9.95;;;6.50;;
72205;SDS011;60111;48.286;7.812;2023-06-26T15:31:48;9.50;;;6.95;;
72205;SDS011;60111;48.286;7.812;2023-06-26T15:34:20;10.63;;;7.50;;
72205;SDS011;60111;48.286;7.812;2023-06-26T15:36:53;13.83;;;6.90;;
72205;SDS011;60111;48.286;7.812;2023-06-26T15:39:25;12.35;;;8.25;;
72205;SDS011;60111;48.286;7.812;2023-06-26T15:41:58;9.80;;;7.73;;
72205;SDS011;60111;48.286;7.812;2023-06-26T15:44:30;10.68;;;7.47;;
72205;SDS011;60111;48.286;7.812;2023-06-26T15:47:06;11.87;;;7.20;;
72205;SDS011;60111;48.286;7.812;2023-06-26T15:49:39;12.45;;;7.40;;
72205;SDS011;60111;48.286;7.812;2023-06-26T15:52:12;9.05;;;6.75;;
72205;SDS011;60111;48.286;7.812;2023-06-26T15:54:44;8.75;;;6.05;;